createdAt,value
2019-03-13T00:02:28.046Z,97073.72
2019-03-13T00:04:57.289Z,97091.61
2019-03-13T00:07:26.571Z,97096.78
2019-03-13T00:09:55.809Z,97102.82
2019-03-13T00:12:25.283Z,97105.54
2019-03-13T00:14:54.524Z,97120.41
2019-03-13T00:17:23.806Z,97130.88
2019-03-13T00:19:53.110Z,97125.92
2019-03-13T00:22:22.376Z,97126.45
2019-03-13T00:24:56.166Z,97113.20
2019-03-13T00:27:25.018Z,97122.36
2019-03-13T00:29:54.291Z,97108.94
2019-03-13T00:32:23.592Z,97111.63
2019-03-13T00:34:52.875Z,97109.12
2019-03-13T00:37:22.135Z,97102.41
2019-03-13T00:39:51.370Z,97100.70
2019-03-13T00:42:20.736Z,97093.75
2019-03-13T00:44:49.990Z,97100.20
2019-03-13T00:47:19.288Z,97091.55
2019-03-13T00:49:48.559Z,97091.19
2019-03-13T00:52:17.814Z,97067.28
2019-03-13T00:54:47.069Z,97061.98
2019-03-13T00:57:16.324Z,97060.20
2019-03-13T00:59:45.625Z,97049.91
2019-03-13T01:02:33.971Z,97045.88
2019-03-13T01:05:10.123Z,97056.98
2019-03-13T01:07:39.368Z,97057.06
2019-03-13T01:10:09.076Z,97063.28
2019-03-13T01:12:38.393Z,97056.11
2019-03-13T01:15:07.838Z,97064.70
2019-03-13T01:17:39.010Z,97064.55
2019-03-13T01:20:08.689Z,97066.50
2019-03-13T01:22:37.942Z,97072.95
2019-03-13T01:25:07.792Z,97062.13
2019-03-13T01:27:37.071Z,97068.20
2019-03-13T01:30:07.027Z,97076.89
2019-03-13T01:32:47.188Z,97079.59
2019-03-13T01:35:22.597Z,97084.98
2019-03-13T01:37:51.850Z,97092.25
2019-03-13T01:40:21.121Z,97087.67
2019-03-13T01:42:50.440Z,97094.69
2019-03-13T01:45:19.718Z,97095.78
2019-03-13T01:47:48.986Z,97098.56
2019-03-13T01:50:18.248Z,97117.61
2019-03-13T01:52:47.540Z,97125.41
2019-03-13T01:55:16.820Z,97116.24
2019-03-13T01:57:46.050Z,97096.41
2019-03-13T02:00:16.224Z,97111.95
2019-03-13T02:02:45.481Z,97132.57
2019-03-13T02:05:14.719Z,97129.13
2019-03-13T02:07:43.975Z,97142.17
2019-03-13T02:10:13.229Z,97140.73
2019-03-13T02:12:42.804Z,97163.73
2019-03-13T02:15:12.404Z,97179.30
2019-03-13T02:17:41.637Z,97196.95
2019-03-13T02:20:11.240Z,97157.79
2019-03-13T02:22:40.490Z,97231.41
2019-03-13T02:25:09.879Z,97237.13
2019-03-13T02:27:39.334Z,97245.02
2019-03-13T02:30:09.888Z,97261.89
2019-03-13T02:32:39.164Z,97261.89
2019-03-13T02:35:08.391Z,97273.61
2019-03-13T02:37:37.658Z,97277.14
2019-03-13T02:40:08.433Z,97278.72
2019-03-13T02:42:37.685Z,97275.11
2019-03-13T02:45:07.999Z,97304.27
2019-03-13T02:47:37.282Z,97321.42
2019-03-13T02:50:06.618Z,97342.67
2019-03-13T02:52:35.894Z,97359.31
2019-03-13T02:55:05.276Z,97355.38
2019-03-13T02:57:34.555Z,97347.20
2019-03-13T03:00:06.854Z,97346.92
2019-03-13T03:02:45.467Z,97350.63
2019-03-13T03:05:14.707Z,97353.66
2019-03-13T03:07:43.966Z,97340.35
2019-03-13T03:10:13.441Z,97353.65
2019-03-13T03:12:42.675Z,97364.20
2019-03-13T03:15:17.004Z,97336.02
2019-03-13T03:17:46.232Z,97365.61
2019-03-13T03:20:17.288Z,97378.61
2019-03-13T03:22:46.534Z,97389.40
2019-03-13T03:25:16.433Z,97401.74
2019-03-13T03:27:45.891Z,97412.09
2019-03-13T03:30:17.834Z,97418.44
2019-03-13T03:32:47.090Z,97419.88
2019-03-13T03:35:16.362Z,97419.31
2019-03-13T03:37:45.682Z,97420.05
2019-03-13T03:40:15.682Z,97428.92
2019-03-13T03:42:44.916Z,97452.61
2019-03-13T03:45:14.184Z,97464.40
2019-03-13T03:47:43.406Z,97464.34
2019-03-13T03:50:13.989Z,97460.05
2019-03-13T03:52:43.227Z,97462.98
2019-03-13T03:55:12.681Z,97469.40
2019-03-13T03:57:41.957Z,97482.77
2019-03-13T04:00:11.199Z,97491.61
2019-03-13T04:02:40.484Z,97500.28
2019-03-13T04:05:10.639Z,97502.59
2019-03-13T04:07:39.887Z,97503.13
2019-03-13T04:10:09.143Z,97504.41
2019-03-13T04:12:38.494Z,97499.06
2019-03-13T04:15:07.894Z,97513.63
2019-03-13T04:17:37.151Z,97515.69
2019-03-13T04:20:06.877Z,97523.33
2019-03-13T04:22:36.102Z,97522.09
2019-03-13T04:25:13.390Z,97519.55
2019-03-13T04:27:42.744Z,97520.34
2019-03-13T04:30:12.239Z,97529.80
2019-03-13T04:32:41.493Z,97523.05
2019-03-13T04:35:10.725Z,97508.42
2019-03-13T04:37:39.994Z,97529.73
2019-03-13T04:40:09.231Z,97529.45
2019-03-13T04:42:38.488Z,97538.31
2019-03-13T04:45:08.048Z,97545.11
2019-03-13T04:47:37.634Z,97552.11
2019-03-13T04:50:07.128Z,97548.96
2019-03-13T04:52:36.643Z,97559.10
2019-03-13T04:55:06.562Z,97567.05
2019-03-13T04:57:35.790Z,97575.16
2019-03-13T05:00:05.520Z,97575.64
2019-03-13T05:02:34.762Z,97581.80
2019-03-13T05:05:04.026Z,97583.06
2019-03-13T05:07:33.259Z,97588.27
2019-03-13T05:10:02.490Z,97593.88
2019-03-13T05:12:31.766Z,97603.84
2019-03-13T05:15:01.022Z,97601.16
2019-03-13T05:17:30.305Z,97608.39
2019-03-13T05:19:59.546Z,97621.27
2019-03-13T05:22:28.790Z,97621.28
2019-03-13T05:24:58.033Z,97619.61
2019-03-13T05:27:27.318Z,97623.67
2019-03-13T05:29:56.549Z,97627.48
2019-03-13T05:32:25.808Z,97632.25
2019-03-13T05:34:55.063Z,97621.83
2019-03-13T05:37:24.317Z,97634.32
2019-03-13T05:39:53.585Z,97638.45
2019-03-13T05:42:22.834Z,97642.00
2019-03-13T05:44:52.110Z,97634.11
2019-03-13T05:47:21.356Z,97629.56
2019-03-13T05:49:51.035Z,97632.75
2019-03-13T05:52:20.842Z,97634.34
2019-03-13T05:54:50.084Z,97642.86
2019-03-13T05:57:19.325Z,97646.56
2019-03-13T05:59:48.673Z,97646.92
2019-03-13T06:02:17.894Z,97652.34
2019-03-13T06:04:47.136Z,97651.05
2019-03-13T06:07:16.386Z,97650.34
2019-03-13T06:09:45.637Z,97657.09
2019-03-13T06:12:14.915Z,97661.20
2019-03-13T06:14:44.141Z,97670.22
2019-03-13T06:17:13.417Z,97668.59
2019-03-13T06:19:42.718Z,97667.56
2019-03-13T06:22:12.161Z,97668.03
2019-03-13T06:24:41.456Z,97672.38
2019-03-13T06:27:10.713Z,97686.20
2019-03-13T06:29:39.990Z,97690.03
2019-03-13T06:32:09.357Z,97693.69
2019-03-13T06:34:45.748Z,97692.56
2019-03-13T06:37:15.270Z,97699.16
2019-03-13T06:39:45.735Z,97698.03
2019-03-13T06:42:15.633Z,97699.50
2019-03-13T06:44:45.163Z,97702.75
2019-03-13T06:47:14.882Z,97705.70
2019-03-13T06:49:44.593Z,97697.16
2019-03-13T06:52:14.342Z,97692.70
2019-03-13T06:54:44.121Z,97689.34
2019-03-13T06:57:13.964Z,97686.08
2019-03-13T07:00:02.755Z,97674.50
2019-03-13T07:02:59.268Z,97677.37
2019-03-13T07:05:59.661Z,97672.68
2019-03-13T07:08:53.919Z,97672.24
2019-03-13T07:11:45.287Z,97666.59
2019-03-13T07:14:36.441Z,97668.42
2019-03-13T07:17:27.506Z,97663.27
2019-03-13T07:20:03.872Z,97669.79
2019-03-13T07:22:48.721Z,97664.06
2019-03-13T07:25:27.921Z,97666.77
2019-03-13T07:28:21.888Z,97670.13
2019-03-13T07:31:03.002Z,97680.95
2019-03-13T07:33:57.255Z,97681.58
2019-03-13T07:36:48.596Z,97683.19
2019-03-13T07:39:39.650Z,97691.20
2019-03-13T07:42:17.069Z,97685.58
2019-03-13T07:44:57.937Z,97688.34
2019-03-13T07:47:43.768Z,97687.19
2019-03-13T07:50:32.160Z,97687.19
2019-03-13T07:53:09.439Z,97693.59
2019-03-13T07:56:03.656Z,97691.47
2019-03-13T07:58:44.719Z,97701.30
2019-03-13T08:01:44.906Z,97689.19
2019-03-13T08:04:22.306Z,97706.02
2019-03-13T08:07:02.339Z,97695.34
2019-03-13T08:09:53.766Z,97705.84
2019-03-13T08:12:40.785Z,97699.28
2019-03-13T08:15:49.158Z,97687.72
2019-03-13T08:18:36.007Z,97695.78
2019-03-13T08:21:24.321Z,97675.34
2019-03-13T08:24:15.354Z,97672.92
2019-03-13T08:27:09.693Z,97669.21
2019-03-13T08:29:47.601Z,97665.41
2019-03-13T08:32:44.183Z,97662.46
2019-03-13T08:35:31.763Z,97657.93
2019-03-13T08:38:10.671Z,97654.58
2019-03-13T08:41:01.750Z,97652.78
2019-03-13T08:43:39.957Z,97638.53
2019-03-13T08:46:17.745Z,97636.32
2019-03-13T08:48:58.660Z,97642.77
2019-03-13T08:51:49.770Z,97636.39
2019-03-13T08:54:34.077Z,97645.63
2019-03-13T08:57:15.269Z,97660.03
2019-03-13T09:00:02.228Z,97632.64
2019-03-13T09:02:53.224Z,97656.32
2019-03-13T09:05:35.528Z,97660.63
2019-03-13T09:08:17.193Z,97659.05
2019-03-13T09:11:00.188Z,97652.95
2019-03-13T09:13:35.682Z,97640.71
2019-03-13T09:16:23.884Z,97629.27
2019-03-13T09:19:08.674Z,97629.04
2019-03-13T09:22:08.720Z,97628.72
2019-03-13T09:25:10.754Z,97620.56
2019-03-13T09:27:49.949Z,97628.95
2019-03-13T09:30:36.541Z,97605.39
2019-03-13T09:33:20.662Z,97616.48
2019-03-13T09:36:08.853Z,97635.49
2019-03-13T09:38:55.538Z,97630.98
2019-03-13T09:41:41.085Z,97616.03
2019-03-13T09:44:47.490Z,97607.66
2019-03-13T09:47:25.100Z,97626.45
2019-03-13T09:50:31.071Z,97625.44
2019-03-13T09:53:28.158Z,97617.40
2019-03-13T09:56:28.465Z,97625.08
2019-03-13T09:59:09.447Z,97625.33
2019-03-13T10:02:03.823Z,97618.06
2019-03-13T10:04:58.220Z,97618.41
2019-03-13T10:07:33.383Z,97617.40
2019-03-13T10:10:37.182Z,97606.53
2019-03-13T10:13:16.057Z,97610.13
2019-03-13T10:16:16.478Z,97605.63
2019-03-13T10:19:16.615Z,97590.84
2019-03-13T10:22:07.756Z,97593.65
2019-03-13T10:24:47.119Z,97573.91
2019-03-13T10:27:34.024Z,97581.58
2019-03-13T10:30:12.498Z,97586.16
2019-03-13T10:32:59.016Z,97570.81
2019-03-13T10:35:45.039Z,97574.73
2019-03-13T10:38:28.087Z,97585.39
2019-03-13T10:41:04.801Z,97574.93
2019-03-13T10:43:47.069Z,97584.30
2019-03-13T10:46:41.105Z,97555.00
2019-03-13T10:49:32.585Z,97578.16
2019-03-13T10:52:29.691Z,97567.18
2019-03-13T10:55:21.139Z,97547.32
2019-03-13T10:58:12.377Z,97550.34
2019-03-13T11:01:12.830Z,97554.77
2019-03-13T11:03:59.743Z,97550.67
2019-03-13T11:06:55.297Z,97551.50
2019-03-13T11:10:01.938Z,97539.63
2019-03-13T11:12:53.092Z,97549.67
2019-03-13T11:15:46.890Z,97548.39
2019-03-13T11:18:38.307Z,97545.58
2019-03-13T11:21:16.580Z,97552.86
2019-03-13T11:24:10.919Z,97541.30
2019-03-13T11:27:04.451Z,97551.94
2019-03-13T11:29:52.763Z,97541.22
2019-03-13T11:32:43.862Z,97542.70
2019-03-13T11:35:26.337Z,97531.18
2019-03-13T11:38:03.878Z,97540.77
2019-03-13T11:40:52.092Z,97532.23
2019-03-13T11:43:55.229Z,97518.23
2019-03-13T11:46:52.311Z,97528.80
2019-03-13T11:49:41.457Z,97523.16
2019-03-13T11:52:27.699Z,97522.91
2019-03-13T11:55:15.901Z,97507.81
2019-03-13T11:58:16.115Z,97513.73
2019-03-13T12:01:02.949Z,97513.28
2019-03-13T12:03:53.140Z,97502.64
2019-03-13T12:06:44.328Z,97501.72
2019-03-13T12:09:35.642Z,97502.42
2019-03-13T12:12:38.703Z,97508.14
2019-03-13T12:15:27.401Z,97512.92
2019-03-13T12:18:15.427Z,97514.21
2019-03-13T12:21:00.883Z,97512.97
2019-03-13T12:23:54.899Z,97511.78
2019-03-13T12:26:41.567Z,97514.32
2019-03-13T12:29:28.205Z,97516.08
2019-03-13T12:32:19.509Z,97505.42
2019-03-13T12:34:57.980Z,97511.55
2019-03-13T12:37:49.042Z,97510.59
2019-03-13T12:40:47.697Z,97515.18
2019-03-13T12:43:38.905Z,97504.57
2019-03-13T12:46:27.073Z,97481.91
2019-03-13T12:49:24.303Z,97492.23
2019-03-13T12:52:15.506Z,97501.28
2019-03-13T12:55:18.862Z,97487.49
2019-03-13T12:58:05.490Z,97487.18
2019-03-13T13:01:05.988Z,97490.55
2019-03-13T13:03:54.162Z,97485.67
2019-03-13T13:06:42.070Z,97463.92
2019-03-13T13:09:42.462Z,97464.22
2019-03-13T13:12:29.155Z,97454.40
2019-03-13T13:15:14.631Z,97444.84
2019-03-13T13:18:01.256Z,97446.23
2019-03-13T13:20:30.513Z,97433.37
2019-03-13T13:22:59.770Z,97437.97
2019-03-13T13:25:29.022Z,97446.98
2019-03-13T13:27:58.352Z,97429.92
2019-03-13T13:30:27.707Z,97429.33
2019-03-13T13:32:56.954Z,97427.64
2019-03-13T13:35:26.221Z,97437.31
2019-03-13T13:37:55.448Z,97435.07
2019-03-13T13:40:24.717Z,97433.59
2019-03-13T13:42:53.939Z,97434.50
2019-03-13T13:45:50.855Z,97441.67
2019-03-13T13:48:20.095Z,97433.01
2019-03-13T13:50:49.329Z,97437.31
2019-03-13T13:53:18.594Z,97424.71
2019-03-13T13:55:47.842Z,97432.97
2019-03-13T13:58:17.113Z,97421.34
2019-03-13T14:00:46.356Z,97438.67
2019-03-13T14:03:15.615Z,97452.84
2019-03-13T14:05:44.877Z,97467.06
2019-03-13T14:08:14.118Z,97447.13
2019-03-13T14:10:43.477Z,97456.66
2019-03-13T14:13:12.712Z,97451.42
2019-03-13T14:15:41.968Z,97444.02
2019-03-13T14:18:11.251Z,97441.83
2019-03-13T14:20:40.518Z,97445.80
2019-03-13T14:23:09.795Z,97422.07
2019-03-13T14:25:39.237Z,97423.63
2019-03-13T14:28:08.463Z,97431.75
2019-03-13T14:30:37.736Z,97426.31
2019-03-13T14:33:07.009Z,97414.61
2019-03-13T14:35:36.243Z,97411.23
2019-03-13T14:38:05.505Z,97411.20
2019-03-13T14:40:34.783Z,97402.01
2019-03-13T14:43:04.044Z,97411.09
2019-03-13T14:45:33.311Z,97414.70
2019-03-13T14:48:03.180Z,97401.86
2019-03-13T14:50:32.442Z,97402.25
2019-03-13T14:53:01.684Z,97408.69
2019-03-13T14:55:31.024Z,97404.16
2019-03-13T14:58:00.274Z,97401.79
2019-03-13T15:00:29.519Z,97400.65
2019-03-13T15:02:58.859Z,97403.51
2019-03-13T15:05:28.147Z,97393.58
2019-03-13T15:07:57.407Z,97401.73
2019-03-13T15:10:26.645Z,97406.22
2019-03-13T15:12:55.918Z,97395.66
2019-03-13T15:15:25.214Z,97394.08
2019-03-13T15:17:54.456Z,97384.50
2019-03-13T15:20:23.744Z,97377.83
2019-03-13T15:22:52.992Z,97385.38
2019-03-13T15:25:22.284Z,97402.67
2019-03-13T15:27:51.523Z,97397.32
2019-03-13T15:33:12.858Z,97386.25
2019-03-13T15:35:42.141Z,97380.50
2019-03-13T15:38:11.387Z,97385.47
2019-03-13T15:40:40.622Z,97367.28
2019-03-13T15:43:09.918Z,97362.58
2019-03-13T15:45:39.179Z,97364.34
2019-03-13T15:48:08.457Z,97381.80
2019-03-13T15:50:37.694Z,97387.72
2019-03-13T15:53:06.966Z,97373.86
2019-03-13T15:55:36.231Z,97371.53
2019-03-13T15:58:05.602Z,97354.34
2019-03-13T16:00:34.901Z,97351.27
2019-03-13T16:03:04.244Z,97356.02
2019-03-13T16:05:33.507Z,97356.83
2019-03-13T16:08:02.764Z,97352.84
2019-03-13T16:10:32.065Z,97362.30
2019-03-13T16:13:03.231Z,97360.37
2019-03-13T16:15:33.803Z,97364.13
2019-03-13T16:18:03.159Z,97365.07
2019-03-13T16:20:32.403Z,97367.63
2019-03-13T16:23:01.835Z,97370.92
2019-03-13T16:25:31.384Z,97361.12
2019-03-13T16:28:00.654Z,97388.52
2019-03-13T16:30:32.499Z,97379.34
2019-03-13T16:33:01.802Z,97390.89
2019-03-13T16:35:31.038Z,97389.30
2019-03-13T16:38:01.131Z,97389.89
2019-03-13T16:40:32.150Z,97378.09
2019-03-13T16:43:03.249Z,97369.56
2019-03-13T16:45:34.798Z,97394.51
2019-03-13T16:48:05.859Z,97389.50
2019-03-13T16:50:37.311Z,97387.16
2019-03-13T16:53:08.939Z,97372.91
2019-03-13T16:55:40.032Z,97386.48
2019-03-13T16:58:10.853Z,97384.45
2019-03-13T17:00:41.815Z,97391.36
2019-03-13T17:03:12.866Z,97381.63
2019-03-13T17:05:44.077Z,97389.09
2019-03-13T17:08:15.045Z,97392.75
2019-03-13T17:10:46.029Z,97388.69
2019-03-13T17:13:17.033Z,97389.63
2019-03-13T17:15:48.387Z,97389.09
2019-03-13T17:18:19.239Z,97397.78
2019-03-13T17:20:50.351Z,97394.84
2019-03-13T17:23:21.299Z,97395.09
2019-03-13T17:25:52.126Z,97390.35
2019-03-13T17:28:22.871Z,97395.55
2019-03-13T17:30:52.671Z,97398.03
2019-03-13T17:33:22.382Z,97394.64
2019-03-13T17:35:52.421Z,97395.20
2019-03-13T17:38:21.766Z,97404.81
2019-03-13T17:40:51.004Z,97394.41
2019-03-13T17:43:20.822Z,97402.76
2019-03-13T17:45:58.123Z,97398.46
2019-03-13T17:48:44.311Z,97394.08
2019-03-13T17:51:23.754Z,97390.58
2019-03-13T17:54:04.037Z,97400.06
2019-03-13T17:56:33.357Z,97400.59
2019-03-13T17:59:02.632Z,97403.88
2019-03-13T18:01:31.905Z,97397.44
2019-03-13T18:04:01.145Z,97396.88
2019-03-13T18:06:30.412Z,97397.11
2019-03-13T18:08:59.649Z,97389.33
2019-03-13T18:11:28.931Z,97385.35
2019-03-13T18:13:58.182Z,97392.34
2019-03-13T18:16:27.422Z,97389.53
2019-03-13T18:18:58.724Z,97386.03
2019-03-13T18:21:28.000Z,97384.22
2019-03-13T18:23:57.298Z,97379.47
2019-03-13T18:26:27.899Z,97382.87
2019-03-13T18:28:57.632Z,97384.45
2019-03-13T18:31:27.262Z,97390.10
2019-03-13T18:33:56.538Z,97390.30
2019-03-13T18:36:26.154Z,97384.22
2019-03-13T18:38:55.491Z,97381.07
2019-03-13T18:41:24.809Z,97384.43
2019-03-13T18:43:54.082Z,97380.61
2019-03-13T18:46:23.373Z,97379.16
2019-03-13T18:48:52.704Z,97377.56
2019-03-13T18:51:22.929Z,97382.63
2019-03-13T18:53:52.284Z,97377.91
2019-03-13T18:56:21.565Z,97376.98
2019-03-13T18:58:50.883Z,97377.91
2019-03-13T19:01:20.200Z,97379.93
2019-03-13T19:03:49.701Z,97381.86
2019-03-13T19:06:18.985Z,97387.04
2019-03-13T19:08:48.310Z,97381.28
2019-03-13T19:11:17.605Z,97381.97
2019-03-13T19:13:47.054Z,97386.84
2019-03-13T19:16:16.359Z,97387.27
2019-03-13T19:18:45.657Z,97400.16
2019-03-13T19:21:15.002Z,97400.81
2019-03-13T19:23:44.303Z,97398.11
2019-03-13T19:26:13.883Z,97399.23
2019-03-13T19:28:43.544Z,97402.66
2019-03-13T19:31:14.099Z,97409.63
2019-03-13T19:33:43.432Z,97408.51
2019-03-13T19:36:12.719Z,97411.55
2019-03-13T19:38:42.052Z,97407.16
2019-03-13T19:41:11.322Z,97406.23
2019-03-13T19:43:40.631Z,97414.84
2019-03-13T19:46:09.969Z,97411.66
2019-03-13T19:48:39.254Z,97415.52
2019-03-13T19:51:08.623Z,97412.74
2019-03-13T19:53:37.880Z,97413.17
2019-03-13T19:56:07.261Z,97422.94
2019-03-13T19:58:36.517Z,97418.82
2019-03-13T20:01:06.777Z,97424.70
2019-03-13T20:03:36.168Z,97426.91
2019-03-13T20:06:05.456Z,97420.47
2019-03-13T20:08:34.781Z,97426.44
2019-03-13T20:11:04.041Z,97427.33
2019-03-13T20:13:33.293Z,97427.80
2019-03-13T20:16:02.532Z,97420.78
2019-03-13T20:18:31.905Z,97429.56
2019-03-13T20:21:01.125Z,97423.49
2019-03-13T20:23:30.447Z,97416.87
2019-03-13T20:25:59.689Z,97419.48
2019-03-13T20:28:28.952Z,97413.27
2019-03-13T20:30:58.223Z,97415.99
2019-03-13T20:33:27.482Z,97415.63
2019-03-13T20:35:56.754Z,97422.09
2019-03-13T20:38:26.194Z,97422.95
2019-03-13T20:40:55.444Z,97425.46
2019-03-13T20:43:24.717Z,97430.03
2019-03-13T20:45:54.150Z,97430.03
2019-03-13T20:48:23.378Z,97432.66
2019-03-13T20:50:52.662Z,97418.00
2019-03-13T20:53:22.006Z,97412.91
2019-03-13T20:55:51.304Z,97414.83
2019-03-13T20:58:20.659Z,97406.80
2019-03-13T21:00:49.961Z,97409.59
2019-03-13T21:03:19.273Z,97406.98
2019-03-13T21:05:48.584Z,97396.30
2019-03-13T21:08:17.909Z,97410.48
2019-03-13T21:10:47.144Z,97396.02
2019-03-13T21:13:16.424Z,97399.08
2019-03-13T21:16:03.364Z,97401.23
2019-03-13T21:18:32.642Z,97399.83
2019-03-13T21:21:01.902Z,97415.13
2019-03-13T21:23:31.152Z,97408.97
2019-03-13T21:26:00.534Z,97401.42
2019-03-13T21:28:29.926Z,97408.43
2019-03-13T21:30:59.235Z,97410.66
2019-03-13T21:33:28.488Z,97409.67
2019-03-13T21:35:57.833Z,97413.19
2019-03-13T21:38:27.081Z,97404.17
2019-03-13T21:41:12.615Z,97425.18
2019-03-13T21:43:41.866Z,97419.82
2019-03-13T21:46:11.121Z,97428.16
2019-03-13T21:48:40.393Z,97430.98
2019-03-13T21:51:09.710Z,97429.10
2019-03-13T21:53:38.958Z,97433.86
2019-03-13T21:56:08.536Z,97426.45
2019-03-13T21:58:38.678Z,97429.34
2019-03-13T22:01:19.207Z,97433.68
2019-03-13T22:03:39.103Z,97440.39
2019-03-13T22:06:08.420Z,97434.89
2019-03-13T22:08:37.661Z,97436.92
2019-03-13T22:11:06.955Z,97436.51
2019-03-13T22:13:36.190Z,97438.50
2019-03-13T22:16:05.608Z,97430.86
2019-03-13T22:18:35.028Z,97431.51
2019-03-13T22:21:04.323Z,97436.92
2019-03-13T22:23:33.587Z,97435.13
2019-03-13T22:26:02.831Z,97444.77
2019-03-13T22:28:32.152Z,97446.73
2019-03-13T22:31:02.770Z,97446.91
2019-03-13T22:33:32.735Z,97449.14
2019-03-13T22:36:01.992Z,97449.08
2019-03-13T22:38:31.325Z,97454.28
2019-03-13T22:41:01.094Z,97455.91
2019-03-13T22:43:30.679Z,97441.20
2019-03-13T22:45:59.933Z,97445.15
2019-03-13T22:48:29.648Z,97453.34
2019-03-13T22:51:02.118Z,97452.88
2019-03-13T22:53:29.996Z,97454.05
2019-03-13T22:55:59.250Z,97450.79
2019-03-13T22:58:28.609Z,97458.52
2019-03-13T23:01:01.921Z,97458.38
2019-03-13T23:03:40.364Z,97460.25
2019-03-13T23:06:08.691Z,97455.73
2019-03-13T23:08:37.998Z,97454.70
2019-03-13T23:11:07.528Z,97459.22
2019-03-13T23:13:37.148Z,97457.63
2019-03-13T23:16:06.523Z,97468.98
2019-03-13T23:18:35.782Z,97458.58
2019-03-13T23:21:05.020Z,97463.75
2019-03-13T23:23:34.411Z,97460.74
2019-03-13T23:26:03.804Z,97469.19
2019-03-13T23:28:33.125Z,97470.59
2019-03-13T23:31:02.470Z,97478.47
2019-03-13T23:33:31.853Z,97487.91
2019-03-13T23:36:01.206Z,97479.32
2019-03-13T23:38:30.569Z,97485.88
2019-03-13T23:40:59.883Z,97480.23
2019-03-13T23:43:29.309Z,97498.30
2019-03-13T23:45:58.796Z,97497.17
2019-03-13T23:48:28.151Z,97499.23
2019-03-13T23:50:57.634Z,97506.88
2019-03-13T23:53:26.991Z,97501.70
2019-03-13T23:55:56.308Z,97505.29
2019-03-13T23:58:25.721Z,97498.34
